< < Back
Terminal Aerodrome Forecast


Current Version              Previous Versions:   1  2  3  4  5  6  7  8  9  

Terminal Aerodrome Forecast

808
FTUS42 KILM 262300
TAFFLO
TAF
KFLO 262332Z 2700/2724 01006KT P6SM BKN018 OVC025
     FM270300 34006KT P6SM SCT020 BKN250
      TEMPO 2706/2709 4SM BR SCT002
     FM271300 03007KT P6SM SCT250
     FM271700 04009KT P6SM SCT040=

Latest METAR

110
SAUS70 KWBC 270400 RRB
MTRFLO
METAR KFLO 270353Z AUTO 34004KT 10SM FEW022 02/M01 A3017 RMK AO2 SLP215
T00221006


USA.gov is the U.S. government's official web portal to all federal, state and local government web resources and services.